This is the latest recevied weather packets stored in our database for station/object KP4CRN. If no packets are shown the sender has not sent any weather packets the latest 10 day(s).
| Time | Temp. | Humidity | Pressure | Rain* | Wind** | Luminosity | Snow |
|---|---|---|---|---|---|---|---|
| 1777465778 | 28.33° C | 83% | 1015.4 hPa | 0 mm | - | 359 W/m² | - |
| 1777465473 | 27.78° C | 85% | 1015.3 hPa | 0 mm | - | 308 W/m² | - |
| 1777465172 | 28.89° C | 82% | 1015.3 hPa | 0 mm | - | 79 W/m² | - |
| 1777464867 | 28.33° C | 83% | 1015.2 hPa | 0 mm | - | 319 W/m² | - |
| 1777464563 | 27.78° C | 84% | 1015.2 hPa | 0 mm | - | 324 W/m² | - |
| 1777464260 | 28.33° C | 82% | 1015.1 hPa | 0 mm | - | 303 W/m² | - |
| 1777463955 | 28.33° C | 84% | 1015.2 hPa | 0 mm | - | 282 W/m² | - |
| 1777463650 | 27.78° C | 84% | 1015 hPa | 0 mm | - | 255 W/m² | - |
| 1777463345 | 27.78° C | 85% | 1015.2 hPa | 0 mm | - | 188 W/m² | - |
| 1777463042 | 27.78° C | 86% | 1015.1 hPa | 0 mm | - | 221 W/m² | - |
| 1777462737 | 27.22° C | 89% | 1015.2 hPa | 0 mm | - | 199 W/m² | - |
| 1777462433 | 27.22° C | 88% | 1015.3 hPa | 0 mm | - | 200 W/m² | - |
| 1777462130 | 26.67° C | 92% | 1015.4 hPa | 0 mm | - | 184 W/m² | - |
| 1777461826 | 25.56° C | 94% | 1015.1 hPa | 0 mm | - | 141 W/m² | - |
| 1777461522 | 25° C | 97% | 1015.2 hPa | 0 mm | - | 110 W/m² | - |
| 1777461219 | 25° C | 98% | 1015.1 hPa | 0 mm | - | 149 W/m² | - |
| 1777460913 | 24.44° C | 99% | 1014.8 hPa | 0 mm | - | 102 W/m² | - |
| 1777460609 | 23.89° C | 99% | 1014.9 hPa | 0 mm | - | 108 W/m² | - |
| 1777460305 | 23.89° C | 99% | 1014.9 hPa | 0 mm | - | 60 W/m² | - |
| 1777460002 | 23.89° C | 99% | 1014.8 hPa | 0 mm | - | 85 W/m² | - |
| 1777459699 | 23.89° C | 99% | 1014.7 hPa | 0 mm | - | 50 W/m² | - |
| 1777459395 | 23.89° C | 99% | 1014.9 hPa | 0 mm | - | 42 W/m² | - |
| 1777459094 | 23.33° C | 99% | 1014.6 hPa | 0 mm | - | 48 W/m² | - |
| 1777458791 | 23.33° C | 99% | 1014.6 hPa | 0 mm | - | 39 W/m² | - |
| 1777458487 | 23.33° C | 99% | 1014.7 hPa | 0 mm | - | 30 W/m² | - |
* Rain latest hour (hover to see other rain measurements)
** Current wind speed in m/s (hover to see current wind gust speed)